Time;durP1;ratioP1;P1;durP2;ratioP2;P2;SDS_P1;SDS_P2;PMS_P1;PMS_P2;Temp;Humidity;BMP_temperature;BMP_pressure;BME280_temperature;BME280_humidity;BME280_pressure;Samples;Min_cycle;Max_cycle;Signal;HPM_P1;HPM_P2
2023/03/21 00:01:13;;;;;;;8.68;5.65;;;13.30;59.20;;;;;;4991845;28;20081;-77
2023/03/21 00:03:41;;;;;;;8.73;5.13;;;13.20;59.10;;;;;;4990380;28;20365;-78
2023/03/21 00:06:10;;;;;;;7.82;5.18;;;13.20;59.20;;;;;;4992064;28;20053;-78
2023/03/21 00:08:36;;;;;;;7.07;5.40;;;13.10;59.20;;;;;;4990728;28;20054;-77
2023/03/21 00:11:04;;;;;;;6.95;4.55;;;13.10;59.40;;;;;;4992489;28;20065;-78
2023/03/21 00:13:37;;;;;;;5.85;4.95;;;13.00;59.60;;;;;;4989708;28;20030;-78
2023/03/21 00:16:05;;;;;;;6.63;5.15;;;13.00;59.80;;;;;;4991356;28;20117;-78
2023/03/21 00:18:31;;;;;;;7.85;5.57;;;12.90;59.80;;;;;;4990998;28;20423;-77
2023/03/21 00:20:58;;;;;;;11.52;6.25;;;12.80;60.00;;;;;;4992239;28;20027;-78
2023/03/21 00:23:29;;;;;;;6.85;5.55;;;12.80;60.40;;;;;;4995376;28;20492;-78
2023/03/21 00:25:56;;;;;;;8.23;4.65;;;12.70;60.50;;;;;;4995828;28;20078;-78
2023/03/21 00:28:22;;;;;;;6.63;5.18;;;12.70;60.50;;;;;;4995795;28;20030;-79
2023/03/21 00:30:48;;;;;;;7.72;5.47;;;12.70;60.70;;;;;;4995851;28;20037;-78
2023/03/21 00:33:14;;;;;;;10.52;5.10;;;12.70;60.80;;;;;;4995517;28;20022;-78
2023/03/21 00:35:46;;;;;;;8.02;5.78;;;12.70;60.70;;;;;;4995740;28;20119;-77
2023/03/21 00:38:13;;;;;;;9.88;4.90;;;12.80;60.90;;;;;;4994572;28;20031;-78
2023/03/21 00:40:40;;;;;;;6.85;4.50;;;12.70;60.90;;;;;;4995646;28;20054;-77
2023/03/21 00:43:06;;;;;;;8.60;4.55;;;12.80;60.80;;;;;;4994803;28;20030;-79
2023/03/21 00:45:31;;;;;;;7.95;4.90;;;12.70;60.70;;;;;;4995555;28;20480;-78
2023/03/21 00:47:57;;;;;;;7.28;5.15;;;12.70;60.80;;;;;;4994330;28;20038;-78
2023/03/21 00:50:24;;;;;;;6.43;5.22;;;12.80;60.90;;;;;;4995538;28;20058;-78
2023/03/21 00:52:50;;;;;;;5.63;4.50;;;12.70;60.70;;;;;;4995541;28;20029;-78
2023/03/21 00:55:17;;;;;;;5.78;4.28;;;12.80;60.70;;;;;;4991972;28;20038;-78
2023/03/21 00:57:44;;;;;;;7.05;5.03;;;12.70;60.60;;;;;;4995331;28;20097;-78
2023/03/21 01:00:12;;;;;;;7.72;5.30;;;12.80;60.70;;;;;;4995388;28;20037;-79
2023/03/21 01:02:41;;;;;;;5.95;4.82;;;12.70;60.80;;;;;;4994242;28;20038;-78
2023/03/21 01:05:09;;;;;;;7.15;4.90;;;12.70;60.70;;;;;;4992770;28;20065;-77
2023/03/21 01:07:35;;;;;;;8.32;5.63;;;12.70;60.70;;;;;;4995170;28;20030;-78
2023/03/21 01:10:00;;;;;;;9.25;4.97;;;12.80;60.80;;;;;;4995220;28;20041;-78
2023/03/21 01:12:27;;;;;;;11.40;5.43;;;12.80;60.70;;;;;;4993756;28;20030;-78
2023/03/21 01:14:53;;;;;;;8.90;5.50;;;12.80;60.60;;;;;;4994917;28;20034;-78
2023/03/21 01:17:19;;;;;;;6.95;5.15;;;12.80;60.60;;;;;;4993703;28;20467;-78
2023/03/21 01:19:45;;;;;;;6.03;4.78;;;12.80;60.60;;;;;;4993709;28;20042;-78
2023/03/21 01:22:11;;;;;;;8.82;5.75;;;12.80;60.50;;;;;;4995061;28;20049;-78
2023/03/21 01:24:37;;;;;;;6.82;5.53;;;12.80;60.60;;;;;;4994838;28;20030;-78
2023/03/21 01:27:03;;;;;;;7.55;5.10;;;12.80;60.60;;;;;;4994785;28;20030;-78
2023/03/21 01:29:28;;;;;;;10.02;5.97;;;12.70;60.80;;;;;;4994836;28;20479;-78
2023/03/21 01:31:54;;;;;;;10.68;5.07;;;12.70;61.00;;;;;;4993431;28;20536;-78
2023/03/21 01:34:20;;;;;;;11.38;5.10;;;12.70;61.00;;;;;;4994394;28;20476;-78
2023/03/21 01:36:46;;;;;;;6.80;4.47;;;12.70;61.00;;;;;;4994622;28;20034;-78
2023/03/21 01:39:12;;;;;;;7.28;4.90;;;12.70;60.90;;;;;;4993602;28;20041;-77
2023/03/21 01:41:40;;;;;;;11.07;5.93;;;12.70;60.90;;;;;;4993385;28;20087;-78
2023/03/21 01:44:06;;;;;;;19.70;6.93;;;12.70;61.10;;;;;;4994595;28;20040;-78
2023/03/21 01:46:43;;;;;;;10.60;6.20;;;12.70;61.20;;;;;;4994552;28;20022;-78
2023/03/21 01:49:15;;;;;;;7.05;5.85;;;12.70;61.10;;;;;;4993180;28;20038;-78
2023/03/21 01:51:49;;;;;;;8.68;5.82;;;12.60;61.10;;;;;;4994536;28;20030;-78
2023/03/21 01:54:24;;;;;;;7.85;5.95;;;12.60;61.10;;;;;;4994632;28;20095;-78
2023/03/21 01:56:52;;;;;;;7.38;6.07;;;12.60;61.20;;;;;;4993646;28;20038;-78
2023/03/21 01:59:30;;;;;;;7.90;5.43;;;12.60;61.10;;;;;;4993429;28;20480;-77
2023/03/21 02:02:05;;;;;;;13.00;6.53;;;12.60;61.20;;;;;;4994076;28;20034;-79
2023/03/21 02:04:34;;;;;;;7.97;5.63;;;12.60;61.20;;;;;;4992547;28;20026;-78
2023/03/21 02:07:10;;;;;;;8.98;5.40;;;12.60;61.20;;;;;;4993611;28;20019;-78
2023/03/21 02:09:39;;;;;;;12.15;6.03;;;12.60;61.10;;;;;;4991590;28;20045;-79
2023/03/21 02:12:07;;;;;;;9.32;6.28;;;12.60;61.20;;;;;;4992740;28;20030;-77
2023/03/21 02:14:35;;;;;;;10.05;6.95;;;12.60;61.00;;;;;;4994007;28;20023;-78
2023/03/21 02:17:27;;;;;;;10.60;7.15;;;12.60;61.00;;;;;;4991624;28;20388;-78
2023/03/21 02:20:21;;;;;;;10.02;5.35;;;12.50;61.00;;;;;;4993039;28;20026;-78
2023/03/21 02:23:18;;;;;;;9.32;6.57;;;12.50;60.90;;;;;;4992073;28;20041;-78
2023/03/21 02:26:26;;;;;;;9.50;5.80;;;12.50;61.00;;;;;;4993039;28;20764;-78
2023/03/21 02:29:14;;;;;;;7.07;5.75;;;12.50;61.00;;;;;;4933571;29;20071;-78
2023/03/21 02:31:51;;;;;;;13.10;6.38;;;12.40;61.00;;;;;;4932462;29;20519;-78
2023/03/21 02:34:50;;;;;;;14.40;8.20;;;12.40;61.10;;;;;;4917386;29;20040;-79
2023/03/21 02:37:31;;;;;;;9.98;6.93;;;12.30;61.20;;;;;;4933164;29;20047;-78
2023/03/21 02:40:19;;;;;;;9.63;6.55;;;12.30;61.20;;;;;;4933402;29;20159;-78
2023/03/21 02:43:02;;;;;;;8.68;6.15;;;12.20;61.20;;;;;;4933537;29;20059;-78
2023/03/21 02:45:39;;;;;;;7.78;6.32;;;12.20;61.30;;;;;;4933064;29;20144;-77
2023/03/21 02:48:10;;;;;;;10.07;6.22;;;12.10;61.30;;;;;;4917827;29;20035;-78
2023/03/21 02:50:47;;;;;;;12.13;7.45;;;12.00;61.40;;;;;;4933455;29;20122;-78
2023/03/21 02:53:16;;;;;;;9.27;6.90;;;12.00;61.60;;;;;;4931959;29;20079;-78
2023/03/21 02:55:44;;;;;;;8.98;7.20;;;12.00;61.70;;;;;;4933139;29;20032;-78
2023/03/21 02:58:15;;;;;;;9.75;7.18;;;11.90;61.70;;;;;;4908591;29;20087;-78
2023/03/21 03:00:43;;;;;;;16.48;7.20;;;11.90;61.80;;;;;;4933102;29;20489;-79
2023/03/21 03:03:11;;;;;;;12.68;7.90;;;11.90;62.10;;;;;;4916934;29;20032;-78
2023/03/21 03:05:44;;;;;;;9.52;6.13;;;11.80;62.10;;;;;;4962318;28;20101;-78
2023/03/21 03:08:23;;;;;;;15.38;7.88;;;11.80;62.20;;;;;;4989706;28;20489;-78
2023/03/21 03:11:05;;;;;;;10.95;7.55;;;11.70;62.40;;;;;;4991873;28;20436;-78
2023/03/21 03:13:49;;;;;;;15.23;8.02;;;11.70;62.60;;;;;;4990841;28;20383;-79
2023/03/21 03:16:21;;;;;;;8.87;6.80;;;11.70;62.50;;;;;;4990765;28;20049;-78
2023/03/21 03:18:58;;;;;;;9.52;7.13;;;11.60;62.40;;;;;;4989240;28;20054;-78
2023/03/21 03:21:35;;;;;;;16.02;8.00;;;11.50;62.70;;;;;;4992123;28;20088;-78
2023/03/21 03:24:03;;;;;;;14.40;8.25;;;11.50;62.90;;;;;;4990878;28;20034;-78
2023/03/21 03:26:44;;;;;;;13.13;8.32;;;11.40;63.10;;;;;;4991868;28;20125;-77
2023/03/21 03:29:15;;;;;;;11.00;8.18;;;11.30;63.40;;;;;;4991676;28;20394;-78
2023/03/21 03:32:01;;;;;;;14.43;7.65;;;11.30;63.50;;;;;;4991589;28;20037;-77
2023/03/21 03:34:38;;;;;;;8.88;6.82;;;11.20;63.50;;;;;;4961001;28;20046;-78
2023/03/21 03:37:06;;;;;;;9.80;6.80;;;11.20;63.40;;;;;;4992278;28;20072;-79
2023/03/21 03:39:57;;;;;;;10.52;8.32;;;11.20;63.30;;;;;;4990679;28;20492;-78
2023/03/21 03:42:33;;;;;;;14.85;9.27;;;11.20;63.50;;;;;;4982732;28;20043;-77
2023/03/21 03:44:59;;;;;;;10.80;8.52;;;11.10;63.70;;;;;;4991741;28;20026;-78
2023/03/21 03:47:31;;;;;;;11.18;8.30;;;11.10;63.70;;;;;;4991579;28;20022;-77
2023/03/21 03:50:20;;;;;;;10.60;8.25;;;11.10;63.80;;;;;;4988080;28;20026;-78
2023/03/21 03:52:55;;;;;;;10.55;7.75;;;11.00;63.80;;;;;;4980399;28;20109;-77
2023/03/21 03:55:25;;;;;;;9.35;6.97;;;11.00;63.70;;;;;;4990070;28;20518;-78
2023/03/21 03:57:52;;;;;;;8.90;7.10;;;11.00;63.60;;;;;;4993962;28;20037;-78
2023/03/21 04:00:19;;;;;;;8.85;6.68;;;11.00;63.60;;;;;;4992891;28;20026;-78
2023/03/21 04:02:45;;;;;;;9.05;6.78;;;11.00;63.60;;;;;;4994959;28;20105;-78
2023/03/21 04:05:12;;;;;;;14.60;9.77;;;11.00;63.60;;;;;;4994365;28;20110;-78
2023/03/21 04:07:38;;;;;;;10.82;7.75;;;11.00;63.60;;;;;;4994999;28;20035;-78
2023/03/21 04:10:04;;;;;;;15.15;7.32;;;10.90;63.50;;;;;;4994884;28;20053;-78
2023/03/21 04:12:30;;;;;;;11.15;7.00;;;10.90;63.40;;;;;;4993521;28;20045;-78
2023/03/21 04:14:56;;;;;;;13.63;9.15;;;10.90;63.50;;;;;;4994765;28;20030;-78
2023/03/21 04:17:22;;;;;;;18.02;8.23;;;10.90;63.90;;;;;;4952767;28;1222573;-78
2023/03/21 04:19:50;;;;;;;13.52;8.18;;;10.90;63.90;;;;;;4995816;28;20122;-78
2023/03/21 04:22:16;;;;;;;13.82;7.68;;;10.80;63.70;;;;;;4995797;28;20030;-78
2023/03/21 04:24:43;;;;;;;12.98;8.20;;;10.80;63.90;;;;;;4995010;28;20081;-78
2023/03/21 04:27:09;;;;;;;15.77;8.27;;;10.80;64.00;;;;;;4995854;28;20022;-78
2023/03/21 04:29:35;;;;;;;19.83;8.77;;;10.80;64.10;;;;;;4996021;28;20042;-78
2023/03/21 04:32:02;;;;;;;9.10;7.43;;;10.70;64.20;;;;;;4995715;28;20080;-78
2023/03/21 04:34:28;;;;;;;11.80;7.35;;;10.70;64.00;;;;;;4995425;28;20105;-78
2023/03/21 04:36:54;;;;;;;13.10;8.32;;;10.70;64.00;;;;;;4993184;28;20114;-78
2023/03/21 04:39:20;;;;;;;14.82;9.43;;;10.70;64.30;;;;;;4995429;28;20022;-77
2023/03/21 04:41:46;;;;;;;12.60;8.48;;;10.70;64.60;;;;;;4994389;28;20400;-78
2023/03/21 04:44:14;;;;;;;10.00;7.85;;;10.70;64.60;;;;;;4995387;28;20026;-78
2023/03/21 04:46:41;;;;;;;10.38;7.38;;;10.60;64.60;;;;;;4995551;28;20022;-78
2023/03/21 04:49:07;;;;;;;14.07;8.13;;;10.60;64.50;;;;;;4994160;28;20038;-79
2023/03/21 04:51:33;;;;;;;9.02;7.45;;;10.60;64.60;;;;;;4993988;28;20034;-78
2023/03/21 04:53:59;;;;;;;12.05;8.07;;;10.60;64.50;;;;;;4993959;28;20034;-78
2023/03/21 04:56:31;;;;;;;12.98;8.55;;;10.60;64.50;;;;;;4995131;28;20475;-78
2023/03/21 04:59:05;;;;;;;24.45;8.07;;;10.60;64.60;;;;;;4991545;28;20480;-78
2023/03/21 05:01:31;;;;;;;10.68;7.70;;;10.60;64.60;;;;;;4993593;28;20061;-78
2023/03/21 05:03:58;;;;;;;9.93;7.13;;;10.60;64.50;;;;;;4993746;28;20063;-78
2023/03/21 05:06:25;;;;;;;12.68;8.40;;;10.60;64.50;;;;;;4993927;28;20476;-78
2023/03/21 05:08:51;;;;;;;13.77;8.38;;;10.60;64.80;;;;;;4993608;28;20026;-78
2023/03/21 05:11:17;;;;;;;11.68;8.88;;;10.60;64.90;;;;;;4994885;28;20030;-78
2023/03/21 05:13:42;;;;;;;17.00;9.75;;;10.60;65.00;;;;;;4993579;28;20042;-78
2023/03/21 05:16:09;;;;;;;11.32;8.77;;;10.60;65.20;;;;;;4993498;28;20054;-78
2023/03/21 05:18:37;;;;;;;9.48;7.93;;;10.60;65.20;;;;;;4994950;28;20029;-78
2023/03/21 05:21:06;;;;;;;12.55;7.85;;;10.60;65.00;;;;;;4991811;28;20074;-78
2023/03/21 05:23:37;;;;;;;10.50;8.38;;;10.60;64.90;;;;;;4992820;28;20023;-78
2023/03/21 05:26:07;;;;;;;9.90;7.82;;;10.60;65.00;;;;;;4992724;28;20037;-78
2023/03/21 05:28:35;;;;;;;17.42;10.73;;;10.60;65.00;;;;;;4991477;28;20034;-79
2023/03/21 05:31:04;;;;;;;15.00;10.35;;;10.70;65.20;;;;;;4994443;28;20050;-77
2023/03/21 05:33:30;;;;;;;11.77;8.32;;;10.70;65.30;;;;;;4994419;28;20022;-76
2023/03/21 05:35:56;;;;;;;10.90;8.05;;;10.70;65.40;;;;;;4993556;28;20369;-77
2023/03/21 05:38:21;;;;;;;10.65;8.45;;;10.80;65.50;;;;;;4994418;28;20033;-78
2023/03/21 05:40:49;;;;;;;12.80;7.78;;;10.90;65.60;;;;;;4994537;28;20070;-78
2023/03/21 05:43:15;;;;;;;12.15;7.68;;;11.00;65.70;;;;;;4994727;28;20022;-78
2023/03/21 05:45:42;;;;;;;11.65;8.32;;;11.10;65.70;;;;;;4993075;28;20391;-77
2023/03/21 05:48:08;;;;;;;12.27;7.68;;;11.20;65.60;;;;;;4993129;28;20085;-77
2023/03/21 05:50:34;;;;;;;12.48;8.18;;;11.30;65.60;;;;;;4994636;28;20122;-78
2023/03/21 05:53:00;;;;;;;11.13;8.52;;;11.40;65.40;;;;;;4994544;28;20058;-78
2023/03/21 05:55:25;;;;;;;12.70;8.10;;;11.50;65.20;;;;;;4994652;28;20542;-78
2023/03/21 05:57:51;;;;;;;14.57;7.95;;;11.60;65.10;;;;;;4995676;28;20093;-78
2023/03/21 06:00:17;;;;;;;10.02;7.25;;;11.70;64.90;;;;;;4999014;28;20041;-78
2023/03/21 06:02:43;;;;;;;10.85;7.88;;;11.80;64.70;;;;;;4998475;28;20030;-78
2023/03/21 06:05:09;;;;;;;17.08;7.90;;;11.90;64.60;;;;;;4996821;28;20484;-77
2023/03/21 06:07:36;;;;;;;10.77;8.48;;;12.00;64.50;;;;;;4998249;28;20396;-79
2023/03/21 06:10:03;;;;;;;16.95;7.70;;;12.10;64.40;;;;;;4994924;28;20022;-78
2023/03/21 06:12:29;;;;;;;15.20;8.27;;;12.20;64.30;;;;;;4994096;28;20480;-78
2023/03/21 06:14:55;;;;;;;13.85;8.73;;;12.30;64.00;;;;;;4994193;28;20045;-78
2023/03/21 06:17:21;;;;;;;13.35;7.82;;;12.40;63.70;;;;;;4994056;28;20131;-78
2023/03/21 06:19:46;;;;;;;10.27;7.82;;;12.50;63.60;;;;;;4992685;28;20026;-77
2023/03/21 06:22:12;;;;;;;18.08;8.27;;;12.60;63.40;;;;;;4992632;28;20022;-78
2023/03/21 06:24:38;;;;;;;12.77;8.65;;;12.70;63.20;;;;;;4992601;28;20056;-78
2023/03/21 06:27:05;;;;;;;12.30;7.95;;;12.80;63.00;;;;;;4993872;28;20108;-78
2023/03/21 06:29:30;;;;;;;15.90;8.05;;;12.90;63.00;;;;;;4993231;28;20034;-79
2023/03/21 06:31:56;;;;;;;14.63;8.50;;;13.00;62.80;;;;;;4989717;28;20381;-79
2023/03/21 06:34:22;;;;;;;18.15;9.00;;;13.10;62.60;;;;;;4992521;28;20053;-78
2023/03/21 06:36:48;;;;;;;13.13;8.77;;;13.10;62.50;;;;;;4993245;28;20105;-78
2023/03/21 06:39:14;;;;;;;11.00;8.55;;;13.30;62.40;;;;;;4993714;28;20084;-78
2023/03/21 06:41:40;;;;;;;17.38;8.73;;;13.40;62.20;;;;;;4991206;28;20029;-78
2023/03/21 06:44:06;;;;;;;9.45;7.25;;;13.50;62.00;;;;;;4988825;28;20030;-79
2023/03/21 06:46:32;;;;;;;16.08;9.52;;;13.50;61.70;;;;;;4987698;28;20475;-78
2023/03/21 06:48:58;;;;;;;14.52;9.43;;;13.60;61.50;;;;;;4986610;28;20154;-78
2023/03/21 06:51:24;;;;;;;16.20;8.63;;;13.70;61.40;;;;;;4991157;28;20030;-80
2023/03/21 06:53:49;;;;;;;12.32;7.90;;;13.80;62.10;;;;;;4992569;28;20049;-78
2023/03/21 06:56:15;;;;;;;12.05;8.18;;;13.90;61.90;;;;;;4992766;28;20058;-78
2023/03/21 06:58:41;;;;;;;13.57;7.22;;;14.00;60.90;;;;;;4991555;28;20475;-78
2023/03/21 07:01:08;;;;;;;11.60;8.45;;;14.00;60.60;;;;;;4992476;28;20186;-78
2023/03/21 07:03:34;;;;;;;8.35;6.97;;;14.20;60.50;;;;;;4992634;28;20037;-78
2023/03/21 07:06:13;;;;;;;13.93;7.97;;;14.20;60.30;;;;;;4992292;28;20026;-78
2023/03/21 07:08:40;;;;;;;12.52;7.60;;;14.30;60.20;;;;;;4992727;28;20383;-79
2023/03/21 07:11:06;;;;;;;11.98;8.13;;;14.40;60.10;;;;;;4992105;28;20552;-77
2023/03/21 07:13:32;;;;;;;14.73;7.90;;;14.40;59.70;;;;;;4993106;28;20038;-78
2023/03/21 07:15:59;;;;;;;15.68;8.30;;;14.50;59.60;;;;;;4990939;28;20045;-78
2023/03/21 07:18:25;;;;;;;8.95;7.15;;;14.60;59.60;;;;;;4993015;28;20022;-78
2023/03/21 07:20:51;;;;;;;13.15;8.25;;;14.60;59.60;;;;;;4992455;28;20026;-78
2023/03/21 07:23:22;;;;;;;12.50;8.82;;;14.70;59.50;;;;;;4991530;28;20033;-78
2023/03/21 07:25:49;;;;;;;9.73;8.05;;;14.80;59.40;;;;;;4992499;28;20026;-78
2023/03/21 07:28:15;;;;;;;11.25;8.10;;;14.80;59.20;;;;;;4992725;28;20034;-78
2023/03/21 07:30:42;;;;;;;9.77;7.60;;;14.90;59.10;;;;;;4990491;28;20507;-78
2023/03/21 07:33:08;;;;;;;14.52;8.95;;;14.90;58.90;;;;;;4990487;28;20129;-78
2023/03/21 07:35:36;;;;;;;14.93;7.95;;;15.00;58.80;;;;;;4991144;28;20038;-77
2023/03/21 07:38:03;;;;;;;11.98;8.30;;;15.00;58.70;;;;;;4992292;28;20527;-77
2023/03/21 07:40:29;;;;;;;14.40;8.68;;;15.00;58.40;;;;;;4991836;28;20026;-78
2023/03/21 07:42:55;;;;;;;17.02;9.98;;;15.00;58.20;;;;;;4990695;28;20360;-77
2023/03/21 07:45:22;;;;;;;11.52;8.57;;;15.00;57.90;;;;;;4992344;28;20037;-78
2023/03/21 07:47:48;;;;;;;12.57;9.30;;;15.00;57.80;;;;;;4991125;28;20528;-78
2023/03/21 07:50:14;;;;;;;12.27;8.73;;;15.00;57.70;;;;;;4992248;28;20035;-77
2023/03/21 07:52:41;;;;;;;11.25;8.10;;;14.90;57.60;;;;;;4992216;28;20129;-78
2023/03/21 07:55:07;;;;;;;10.40;8.45;;;14.90;57.70;;;;;;4992309;28;20065;-78
2023/03/21 07:57:33;;;;;;;13.18;8.43;;;14.90;57.70;;;;;;4991947;28;20030;-77
2023/03/21 07:59:58;;;;;;;10.80;7.82;;;14.80;57.70;;;;;;4992365;28;20038;-77
2023/03/21 08:02:24;;;;;;;11.60;7.38;;;14.80;57.70;;;;;;4991843;28;20049;-78
2023/03/21 08:04:51;;;;;;;13.65;8.20;;;14.80;57.70;;;;;;4992398;28;20027;-79
2023/03/21 08:07:17;;;;;;;12.93;8.50;;;14.80;57.70;;;;;;4992502;28;20089;-78
2023/03/21 08:09:43;;;;;;;12.63;8.27;;;14.80;57.70;;;;;;4991107;28;20034;-78
2023/03/21 08:12:10;;;;;;;11.25;7.18;;;14.80;57.60;;;;;;4991268;28;20118;-78
2023/03/21 08:14:36;;;;;;;8.32;6.70;;;14.80;57.50;;;;;;4991726;28;20081;-77
2023/03/21 08:17:03;;;;;;;8.38;6.47;;;14.80;57.30;;;;;;4991013;28;20046;-78
2023/03/21 08:19:29;;;;;;;9.38;6.75;;;14.80;57.40;;;;;;4991507;28;20037;-78
2023/03/21 08:21:58;;;;;;;9.95;6.32;;;14.80;57.40;;;;;;4992178;28;20477;-77
2023/03/21 08:24:25;;;;;;;8.77;6.15;;;14.90;57.20;;;;;;4991179;28;20023;-78
2023/03/21 08:26:51;;;;;;;10.25;5.82;;;14.90;57.10;;;;;;4992066;28;20472;-78
2023/03/21 08:29:16;;;;;;;9.13;6.53;;;14.90;57.00;;;;;;4989700;28;20056;-77
2023/03/21 08:31:42;;;;;;;9.05;6.63;;;15.00;56.90;;;;;;4990097;28;20043;-77
2023/03/21 08:34:08;;;;;;;7.80;6.60;;;15.00;56.80;;;;;;4991563;28;20522;-78
2023/03/21 08:36:37;;;;;;;10.70;7.20;;;15.10;57.30;;;;;;4990414;28;20085;-78
2023/03/21 08:39:04;;;;;;;9.55;6.65;;;15.10;56.60;;;;;;4990497;28;20387;-78
2023/03/21 08:41:35;;;;;;;10.82;7.10;;;15.10;56.50;;;;;;4991986;28;20109;-77
2023/03/21 08:44:01;;;;;;;9.70;6.47;;;15.20;56.40;;;;;;4993776;28;20052;-78
2023/03/21 08:46:27;;;;;;;8.82;6.55;;;15.20;56.40;;;;;;4993785;28;20019;-78
2023/03/21 08:48:53;;;;;;;9.95;7.20;;;15.30;56.50;;;;;;4994264;28;20113;-78
2023/03/21 08:51:19;;;;;;;12.25;7.88;;;15.30;56.30;;;;;;4995480;28;20038;-77
2023/03/21 08:53:45;;;;;;;11.63;7.85;;;15.40;56.20;;;;;;4995106;28;20034;-77
2023/03/21 08:56:11;;;;;;;17.65;8.13;;;15.40;56.00;;;;;;4995499;28;20117;-78
2023/03/21 08:58:37;;;;;;;8.77;6.53;;;15.50;56.00;;;;;;4995365;28;20036;-78
2023/03/21 09:01:06;;;;;;;8.93;6.90;;;15.50;55.80;;;;;;4994928;28;20488;-77
2023/03/21 09:03:32;;;;;;;9.25;6.82;;;15.60;55.70;;;;;;4994093;28;20045;-77
2023/03/21 09:05:59;;;;;;;10.10;7.43;;;15.60;55.60;;;;;;5003594;28;20027;-77
2023/03/21 09:08:25;;;;;;;11.20;7.22;;;15.70;55.40;;;;;;4994782;28;20096;-77
2023/03/21 09:10:55;;;;;;;10.80;7.47;;;15.70;55.20;;;;;;4994706;28;20022;-77
2023/03/21 09:13:21;;;;;;;13.32;7.80;;;15.80;55.10;;;;;;4994922;28;20071;-77
2023/03/21 09:15:47;;;;;;;26.02;6.88;;;15.80;55.00;;;;;;4994932;28;20054;-77
2023/03/21 09:18:14;;;;;;;12.85;7.53;;;15.90;55.00;;;;;;4995052;28;20030;-77
2023/03/21 09:20:42;;;;;;;13.13;7.30;;;15.90;54.90;;;;;;4994425;28;20034;-77
2023/03/21 09:23:09;;;;;;;8.93;6.93;;;15.90;54.90;;;;;;4993552;28;20038;-77
2023/03/21 09:25:36;;;;;;;10.48;6.78;;;16.00;54.90;;;;;;4993966;28;20156;-78
2023/03/21 09:28:04;;;;;;;8.60;6.55;;;16.00;54.60;;;;;;4994565;28;20022;-77
2023/03/21 09:30:31;;;;;;;12.70;7.00;;;16.10;54.50;;;;;;4993086;28;20034;-78
2023/03/21 09:33:02;;;;;;;14.35;6.90;;;16.10;54.40;;;;;;4994328;28;20038;-77
2023/03/21 09:35:29;;;;;;;9.02;6.82;;;16.20;54.10;;;;;;4992917;28;20038;-78
2023/03/21 09:37:58;;;;;;;9.40;6.70;;;16.20;54.00;;;;;;4993862;28;20022;-77
2023/03/21 09:40:55;;;;;;;10.35;7.03;;;16.30;54.00;;;;;;4994515;28;20026;-77
2023/03/21 09:43:48;;;;;;;7.80;5.85;;;16.30;54.10;;;;;;4991676;28;20029;-78
2023/03/21 09:46:28;;;;;;;9.70;6.90;;;16.40;54.30;;;;;;4994528;28;20036;-77
2023/03/21 09:49:20;;;;;;;8.13;6.03;;;16.40;53.80;;;;;;4991055;28;20121;-78
2023/03/21 09:51:52;;;;;;;8.23;5.88;;;16.50;53.80;;;;;;4993385;28;20420;-77
2023/03/21 09:54:26;;;;;;;11.88;7.20;;;16.50;53.80;;;;;;4990936;28;20096;-77
2023/03/21 09:56:55;;;;;;;11.88;7.05;;;16.50;53.40;;;;;;4992592;28;20031;-77
2023/03/21 09:59:38;;;;;;;15.77;6.40;;;16.60;53.30;;;;;;4994241;28;20118;-77
2023/03/21 10:02:35;;;;;;;15.32;6.88;;;16.60;53.30;;;;;;4994216;28;20035;-77
2023/03/21 10:05:08;;;;;;;10.43;6.60;;;16.70;53.30;;;;;;4983008;28;20050;-77
2023/03/21 10:07:41;;;;;;;22.23;7.15;;;16.80;53.10;;;;;;4994009;28;20105;-77
2023/03/21 10:10:20;;;;;;;9.20;7.05;;;16.80;52.80;;;;;;4994069;28;20027;-77
2023/03/21 10:12:47;;;;;;;11.95;6.00;;;16.90;52.60;;;;;;4993061;28;20034;-77
2023/03/21 10:15:22;;;;;;;9.07;6.57;;;17.00;52.40;;;;;;4993476;28;20109;-78
2023/03/21 10:17:58;;;;;;;10.25;6.85;;;17.10;51.80;;;;;;4993463;28;20042;-77
2023/03/21 10:20:34;;;;;;;8.60;5.95;;;17.10;51.30;;;;;;4992079;28;20034;-77
2023/03/21 10:23:05;;;;;;;9.38;5.93;;;17.20;51.50;;;;;;4992945;28;20026;-78
2023/03/21 10:25:40;;;;;;;7.97;5.22;;;17.40;51.30;;;;;;4993769;28;20029;-77
2023/03/21 10:28:07;;;;;;;5.85;4.47;;;17.50;50.50;;;;;;4992278;28;20337;-76
2023/03/21 10:30:36;;;;;;;8.88;5.03;;;17.60;50.60;;;;;;4990249;28;20103;-77
2023/03/21 10:33:04;;;;;;;11.95;5.63;;;17.70;50.60;;;;;;4993417;28;20026;-77
2023/03/21 10:35:35;;;;;;;7.47;5.07;;;17.80;49.80;;;;;;4993574;28;20027;-77
2023/03/21 10:38:05;;;;;;;8.70;5.32;;;18.00;50.40;;;;;;4993212;28;20026;-78
2023/03/21 10:40:31;;;;;;;10.88;5.65;;;18.20;50.30;;;;;;4993277;28;20019;-78
2023/03/21 10:43:23;;;;;;;9.52;6.00;;;18.40;49.50;;;;;;4993741;28;20026;-78
2023/03/21 10:45:49;;;;;;;11.98;5.28;;;18.60;48.90;;;;;;4992235;28;20035;-78
2023/03/21 10:48:14;;;;;;;15.45;6.60;;;18.80;47.20;;;;;;4992600;28;20427;-78
2023/03/21 10:50:41;;;;;;;9.90;5.32;;;18.90;46.20;;;;;;4997761;28;20030;-78
2023/03/21 10:53:19;;;;;;;6.05;4.65;;;19.10;46.10;;;;;;4995290;28;20483;-79
2023/03/21 10:55:50;;;;;;;6.90;4.78;;;19.10;46.40;;;;;;4993827;28;20077;-78
2023/03/21 10:58:26;;;;;;;6.82;4.93;;;19.20;46.40;;;;;;4991044;28;20051;-79
2023/03/21 11:01:13;;;;;;;6.53;5.00;;;19.20;46.30;;;;;;4991905;28;20084;-78
2023/03/21 11:03:43;;;;;;;13.98;5.15;;;19.10;45.90;;;;;;4990937;28;20357;-77
2023/03/21 11:06:25;;;;;;;7.38;4.82;;;19.10;45.70;;;;;;4992207;28;20022;-77
2023/03/21 11:08:57;;;;;;;6.10;4.72;;;19.10;45.90;;;;;;4992195;28;20046;-77
2023/03/21 11:11:26;;;;;;;7.00;4.97;;;19.20;46.60;;;;;;4992467;28;20050;-79
2023/03/21 11:14:05;;;;;;;6.45;4.43;;;19.40;46.70;;;;;;4990992;28;20077;-81
2023/03/21 11:16:37;;;;;;;7.88;4.57;;;19.50;45.80;;;;;;4995151;28;20042;-79
2023/03/21 11:19:17;;;;;;;6.40;4.20;;;19.60;45.50;;;;;;4994491;28;20077;-78
2023/03/21 11:21:44;;;;;;;6.80;4.38;;;19.80;44.90;;;;;;4994350;28;20023;-82
2023/03/21 11:24:17;;;;;;;5.95;4.25;;;19.90;45.00;;;;;;4993159;28;20077;-82
2023/03/21 11:26:44;;;;;;;;;;;19.90;44.40;;;;;;4993459;28;20391;-80
2023/03/21 11:29:29;;;;;;;9.00;4.00;;;20.00;46.20;;;;;;4992974;28;19906;-82
2023/03/21 11:32:29;;;;;;;6.57;4.13;;;20.10;44.10;;;;;;4992918;28;20022;-80
2023/03/21 11:35:27;;;;;;;7.85;4.40;;;20.10;43.20;;;;;;4993100;28;20049;-81
2023/03/21 11:37:55;;;;;;;6.32;4.50;;;20.10;42.80;;;;;;4989038;28;20109;-80
2023/03/21 11:40:23;;;;;;;4.75;3.67;;;20.00;42.70;;;;;;4994020;28;20030;-81
2023/03/21 11:42:54;;;;;;;5.35;3.97;;;20.00;42.60;;;;;;4994050;28;20023;-79
2023/03/21 11:45:26;;;;;;;5.18;3.22;;;20.00;42.70;;;;;;4993777;28;20019;-79
2023/03/21 11:47:55;;;;;;;5.75;3.83;;;20.00;43.00;;;;;;4993910;28;20018;-81
2023/03/21 11:50:32;;;;;;;5.05;3.60;;;20.10;42.70;;;;;;4978406;28;20056;-79
2023/03/21 11:53:04;;;;;;;5.20;3.90;;;20.20;42.30;;;;;;4973439;28;20027;-79
2023/03/21 11:55:41;;;;;;;9.35;4.28;;;20.30;42.80;;;;;;4973350;28;20097;-81
2023/03/21 11:59:06;;;;;;;7.78;4.45;;;20.30;42.00;;;;;;4989611;28;20081;-80
2023/03/21 12:01:40;;;;;;;7.50;4.00;;;20.40;42.30;;;;;;4924346;29;20047;-82
2023/03/21 12:04:45;;;;;;;5.68;3.50;;;20.40;41.80;;;;;;4952966;29;20031;-80
2023/03/21 12:07:43;;;;;;;6.32;3.80;;;20.40;41.30;;;;;;4991241;28;20048;-80
2023/03/21 12:10:32;;;;;;;6.53;4.10;;;20.30;41.40;;;;;;4993809;28;20386;-81
2023/03/21 12:13:39;;;;;;;9.15;3.90;;;20.20;40.90;;;;;;4993749;28;20025;-81
2023/03/21 12:16:23;;;;;;;11.57;4.05;;;20.10;41.90;;;;;;4991751;28;20042;-81
2023/03/21 12:19:07;;;;;;;5.75;3.35;;;20.00;41.50;;;;;;4996219;28;20026;-81
2023/03/21 12:21:41;;;;;;;6.37;3.80;;;19.90;41.70;;;;;;4997758;28;20061;-78
2023/03/21 12:24:09;;;;;;;9.27;3.90;;;19.80;41.40;;;;;;4998006;28;20030;-81
2023/03/21 12:27:01;;;;;;;7.75;3.58;;;19.70;41.40;;;;;;4997542;28;20073;-82
2023/03/21 12:29:45;;;;;;;4.03;3.05;;;19.70;41.50;;;;;;4978491;28;20042;-80
2023/03/21 12:32:19;;;;;;;5.13;3.53;;;19.60;41.90;;;;;;4996267;28;20033;-81
2023/03/21 12:35:09;;;;;;;5.95;3.60;;;19.50;41.90;;;;;;4997089;28;20109;-81
2023/03/21 12:37:46;;;;;;;4.68;3.60;;;19.50;41.90;;;;;;4997481;28;20435;-82
2023/03/21 12:40:52;;;;;;;5.80;3.17;;;19.50;41.50;;;;;;4996077;28;20033;-79
2023/03/21 12:43:26;;;;;;;3.45;2.97;;;19.40;40.80;;;;;;4997497;28;20026;-80
2023/03/21 12:45:58;;;;;;;7.28;3.45;;;19.40;41.00;;;;;;4996199;28;20365;-79
2023/03/21 12:48:47;;;;;;;4.55;3.05;;;19.40;41.30;;;;;;4997208;28;20496;-82
2023/03/21 12:51:18;;;;;;;4.22;2.97;;;19.40;41.30;;;;;;4997233;28;20421;-80
2023/03/21 12:54:02;;;;;;;6.55;2.78;;;19.40;41.40;;;;;;4997239;28;20026;-80
2023/03/21 12:56:57;;;;;;;4.22;3.00;;;19.40;41.40;;;;;;5012041;28;20076;-79
2023/03/21 12:59:37;;;;;;;5.45;3.10;;;19.40;41.50;;;;;;5012009;28;20034;-82
2023/03/21 13:02:35;;;;;;;4.80;2.95;;;19.40;40.70;;;;;;4995699;28;20026;-78
2023/03/21 13:05:19;;;;;;;4.05;2.67;;;19.40;40.90;;;;;;4993254;28;20069;-80